sensor_id;sensor_type;location;lat;lon;timestamp;pressure;altitude;pressure_sealevel;temperature;humidity
52735;BME280;38631;47.572;10.704;2024-01-30T00:02:10;93807.00;;;-0.10;93.03
52735;BME280;38631;47.572;10.704;2024-01-30T00:04:36;93813.66;;;-0.14;95.32
52735;BME280;38631;47.572;10.704;2024-01-30T00:07:01;93815.81;;;-0.05;94.94
52735;BME280;38631;47.572;10.704;2024-01-30T00:09:26;93810.34;;;0.04;93.30
52735;BME280;38631;47.572;10.704;2024-01-30T00:11:52;93822.00;;;0.01;93.31
52735;BME280;38631;47.572;10.704;2024-01-30T00:14:17;93819.28;;;0.28;93.21
52735;BME280;38631;47.572;10.704;2024-01-30T00:16:43;93813.22;;;-0.70;96.41
52735;BME280;38631;47.572;10.704;2024-01-30T00:19:08;93824.63;;;0.01;95.67
52735;BME280;38631;47.572;10.704;2024-01-30T00:21:34;93829.25;;;0.37;93.37
52735;BME280;38631;47.572;10.704;2024-01-30T00:23:59;93825.47;;;0.33;93.12
52735;BME280;38631;47.572;10.704;2024-01-30T00:26:24;93821.09;;;0.59;91.71
52735;BME280;38631;47.572;10.704;2024-01-30T00:28:50;93823.19;;;0.50;91.63
52735;BME280;38631;47.572;10.704;2024-01-30T00:31:15;93822.44;;;0.36;92.51
52735;BME280;38631;47.572;10.704;2024-01-30T00:33:41;93828.63;;;0.04;92.24
52735;BME280;38631;47.572;10.704;2024-01-30T00:36:08;93821.47;;;-0.14;92.20
52735;BME280;38631;47.572;10.704;2024-01-30T00:38:34;93828.34;;;0.25;92.47
52735;BME280;38631;47.572;10.704;2024-01-30T00:41:00;93827.59;;;0.05;92.98
52735;BME280;38631;47.572;10.704;2024-01-30T00:43:27;93824.34;;;0.16;92.35
52735;BME280;38631;47.572;10.704;2024-01-30T00:45:52;93825.31;;;0.21;91.87
52735;BME280;38631;47.572;10.704;2024-01-30T00:48:18;93830.34;;;0.23;91.26
52735;BME280;38631;47.572;10.704;2024-01-30T00:50:44;93827.31;;;0.26;91.51
52735;BME280;38631;47.572;10.704;2024-01-30T00:53:09;93809.63;;;0.28;91.20
52735;BME280;38631;47.572;10.704;2024-01-30T00:55:35;93834.97;;;0.28;91.54
52735;BME280;38631;47.572;10.704;2024-01-30T00:58:00;93827.75;;;0.23;91.39
52735;BME280;38631;47.572;10.704;2024-01-30T01:00:26;93820.25;;;0.33;90.74
52735;BME280;38631;47.572;10.704;2024-01-30T01:03:00;93824.09;;;0.24;91.09
52735;BME280;38631;47.572;10.704;2024-01-30T01:05:26;93830.53;;;0.28;91.03
52735;BME280;38631;47.572;10.704;2024-01-30T01:07:51;93828.34;;;0.25;91.33
52735;BME280;38631;47.572;10.704;2024-01-30T01:10:17;93825.53;;;0.20;90.62
52735;BME280;38631;47.572;10.704;2024-01-30T01:12:43;93834.44;;;0.44;91.01
52735;BME280;38631;47.572;10.704;2024-01-30T01:15:09;93832.84;;;0.43;91.02
52735;BME280;38631;47.572;10.704;2024-01-30T01:17:38;93830.47;;;0.35;90.62
52735;BME280;38631;47.572;10.704;2024-01-30T01:20:05;93824.97;;;-0.40;93.32
52735;BME280;38631;47.572;10.704;2024-01-30T01:22:31;93828.97;;;0.14;92.13
52735;BME280;38631;47.572;10.704;2024-01-30T01:24:57;93829.38;;;-0.34;90.83
52735;BME280;38631;47.572;10.704;2024-01-30T01:27:23;93835.75;;;-0.24;93.59
52735;BME280;38631;47.572;10.704;2024-01-30T01:29:48;93837.44;;;0.09;92.23
52735;BME280;38631;47.572;10.704;2024-01-30T01:32:14;93827.44;;;-0.59;94.53
52735;BME280;38631;47.572;10.704;2024-01-30T01:34:39;93825.97;;;-0.41;93.29
52735;BME280;38631;47.572;10.704;2024-01-30T01:37:04;93830.66;;;-0.05;93.20
52735;BME280;38631;47.572;10.704;2024-01-30T01:39:30;93829.06;;;0.01;91.82
52735;BME280;38631;47.572;10.704;2024-01-30T01:41:55;93834.28;;;-0.06;91.96
52735;BME280;38631;47.572;10.704;2024-01-30T01:44:20;93832.63;;;0.06;91.61
52735;BME280;38631;47.572;10.704;2024-01-30T01:46:46;93841.09;;;0.02;91.06
52735;BME280;38631;47.572;10.704;2024-01-30T01:49:13;93826.19;;;0.15;90.94
52735;BME280;38631;47.572;10.704;2024-01-30T01:51:39;93834.88;;;-0.04;91.18
52735;BME280;38631;47.572;10.704;2024-01-30T01:54:06;93817.59;;;-0.63;93.57
52735;BME280;38631;47.572;10.704;2024-01-30T01:56:33;93822.72;;;-0.24;92.35
52735;BME280;38631;47.572;10.704;2024-01-30T01:59:01;93820.97;;;0.09;92.07
52735;BME280;38631;47.572;10.704;2024-01-30T02:01:31;93833.47;;;0.00;91.85
52735;BME280;38631;47.572;10.704;2024-01-30T02:03:58;93813.81;;;-0.09;92.04
52735;BME280;38631;47.572;10.704;2024-01-30T02:06:24;93823.78;;;0.07;91.50
52735;BME280;38631;47.572;10.704;2024-01-30T02:08:49;93826.56;;;0.12;90.36
52735;BME280;38631;47.572;10.704;2024-01-30T02:11:14;93820.38;;;-0.45;93.98
52735;BME280;38631;47.572;10.704;2024-01-30T02:13:41;93822.72;;;-0.24;92.93
52735;BME280;38631;47.572;10.704;2024-01-30T02:16:07;93814.25;;;-0.19;92.23
52735;BME280;38631;47.572;10.704;2024-01-30T02:18:32;93812.03;;;-0.15;91.74
52735;BME280;38631;47.572;10.704;2024-01-30T02:20:58;93824.03;;;-0.08;91.66
52735;BME280;38631;47.572;10.704;2024-01-30T02:23:27;93833.16;;;-0.30;92.91
52735;BME280;38631;47.572;10.704;2024-01-30T02:25:52;93832.91;;;-0.15;92.30
52735;BME280;38631;47.572;10.704;2024-01-30T02:28:19;93815.50;;;-0.28;90.91
52735;BME280;38631;47.572;10.704;2024-01-30T02:30:45;93817.50;;;-0.30;92.95
52735;BME280;38631;47.572;10.704;2024-01-30T02:33:10;93813.13;;;-0.43;92.71
52735;BME280;38631;47.572;10.704;2024-01-30T02:35:36;93814.75;;;-0.42;93.49
52735;BME280;38631;47.572;10.704;2024-01-30T02:38:01;93827.94;;;-0.30;92.79
52735;BME280;38631;47.572;10.704;2024-01-30T02:40:26;93830.34;;;-0.29;90.73
52735;BME280;38631;47.572;10.704;2024-01-30T02:42:52;93824.44;;;-0.62;94.06
52735;BME280;38631;47.572;10.704;2024-01-30T02:45:17;93814.00;;;-0.76;93.51
52735;BME280;38631;47.572;10.704;2024-01-30T02:47:43;93821.97;;;-0.51;92.82
52735;BME280;38631;47.572;10.704;2024-01-30T02:50:08;93813.47;;;-0.26;92.32
52735;BME280;38631;47.572;10.704;2024-01-30T02:52:34;93814.69;;;-0.22;92.01
52735;BME280;38631;47.572;10.704;2024-01-30T02:54:59;93816.09;;;-0.26;92.61
52735;BME280;38631;47.572;10.704;2024-01-30T02:57:25;93811.84;;;-0.20;91.62
52735;BME280;38631;47.572;10.704;2024-01-30T02:59:50;93820.88;;;-0.10;91.25
52735;BME280;38631;47.572;10.704;2024-01-30T03:02:16;93809.66;;;-0.24;90.22
52735;BME280;38631;47.572;10.704;2024-01-30T03:04:42;93814.09;;;-0.24;91.00
52735;BME280;38631;47.572;10.704;2024-01-30T03:07:07;93825.84;;;-0.08;90.93
52735;BME280;38631;47.572;10.704;2024-01-30T03:09:33;93818.91;;;0.17;89.88
52735;BME280;38631;47.572;10.704;2024-01-30T03:11:58;93812.16;;;0.03;89.93
52735;BME280;38631;47.572;10.704;2024-01-30T03:14:23;93821.03;;;-0.05;90.15
52735;BME280;38631;47.572;10.704;2024-01-30T03:16:49;93812.31;;;-0.37;91.01
52735;BME280;38631;47.572;10.704;2024-01-30T03:19:14;93809.41;;;-0.09;90.16
52735;BME280;38631;47.572;10.704;2024-01-30T03:21:39;93814.31;;;-0.32;90.35
52735;BME280;38631;47.572;10.704;2024-01-30T03:24:05;93817.41;;;0.03;90.27
52735;BME280;38631;47.572;10.704;2024-01-30T03:26:30;93809.47;;;-0.29;90.99
52735;BME280;38631;47.572;10.704;2024-01-30T03:28:56;93811.34;;;-0.42;90.72
52735;BME280;38631;47.572;10.704;2024-01-30T03:31:21;93806.88;;;-0.29;91.18
52735;BME280;38631;47.572;10.704;2024-01-30T03:33:47;93801.81;;;-0.17;90.91
52735;BME280;38631;47.572;10.704;2024-01-30T03:36:12;93814.63;;;-0.09;91.02
52735;BME280;38631;47.572;10.704;2024-01-30T03:38:37;93808.59;;;-0.68;92.55
52735;BME280;38631;47.572;10.704;2024-01-30T03:41:03;93811.59;;;-0.71;92.54
52735;BME280;38631;47.572;10.704;2024-01-30T03:43:28;93806.88;;;-0.29;92.46
52735;BME280;38631;47.572;10.704;2024-01-30T03:45:54;93812.00;;;-0.74;93.16
52735;BME280;38631;47.572;10.704;2024-01-30T03:48:21;93812.28;;;-0.30;92.53
52735;BME280;38631;47.572;10.704;2024-01-30T03:50:46;93812.31;;;-0.37;92.33
52735;BME280;38631;47.572;10.704;2024-01-30T03:53:12;93808.13;;;-0.45;91.48
52735;BME280;38631;47.572;10.704;2024-01-30T03:55:37;93801.97;;;-0.70;91.64
52735;BME280;38631;47.572;10.704;2024-01-30T03:58:02;93804.06;;;-0.27;91.50
52735;BME280;38631;47.572;10.704;2024-01-30T04:00:28;93799.06;;;-0.35;90.93
52735;BME280;38631;47.572;10.704;2024-01-30T04:02:53;93796.91;;;-0.52;92.32
52735;BME280;38631;47.572;10.704;2024-01-30T04:05:18;93804.91;;;-0.40;91.72
52735;BME280;38631;47.572;10.704;2024-01-30T04:07:44;93805.47;;;-0.38;91.86
52735;BME280;38631;47.572;10.704;2024-01-30T04:10:09;93797.56;;;-0.70;93.12
52735;BME280;38631;47.572;10.704;2024-01-30T04:12:35;93798.53;;;-0.57;92.38
52735;BME280;38631;47.572;10.704;2024-01-30T04:15:01;93792.25;;;-0.36;92.06
52735;BME280;38631;47.572;10.704;2024-01-30T04:17:26;93800.44;;;-0.33;91.81
52735;BME280;38631;47.572;10.704;2024-01-30T04:19:54;93802.59;;;-0.10;90.84
52735;BME280;38631;47.572;10.704;2024-01-30T04:22:19;93788.00;;;-0.31;90.44
52735;BME280;38631;47.572;10.704;2024-01-30T04:24:44;93797.22;;;-0.22;90.56
52735;BME280;38631;47.572;10.704;2024-01-30T04:27:10;93793.03;;;-0.29;90.40
52735;BME280;38631;47.572;10.704;2024-01-30T04:29:35;93791.88;;;-0.47;91.49
52735;BME280;38631;47.572;10.704;2024-01-30T04:32:00;93795.50;;;-0.54;91.40
52735;BME280;38631;47.572;10.704;2024-01-30T04:34:26;93800.31;;;-0.51;91.20
52735;BME280;38631;47.572;10.704;2024-01-30T04:36:51;93794.25;;;-0.32;90.83
52735;BME280;38631;47.572;10.704;2024-01-30T04:39:16;93794.88;;;-0.43;90.53
52735;BME280;38631;47.572;10.704;2024-01-30T04:41:42;93788.06;;;-0.44;91.02
52735;BME280;38631;47.572;10.704;2024-01-30T04:44:07;93803.19;;;-0.73;92.55
52735;BME280;38631;47.572;10.704;2024-01-30T04:46:32;93807.53;;;-0.53;91.48
52735;BME280;38631;47.572;10.704;2024-01-30T04:48:59;93801.38;;;-0.79;91.81
52735;BME280;38631;47.572;10.704;2024-01-30T04:51:25;93814.31;;;-0.39;91.68
52735;BME280;38631;47.572;10.704;2024-01-30T04:53:50;93809.47;;;-0.29;91.16
52735;BME280;38631;47.572;10.704;2024-01-30T04:56:15;93812.34;;;-0.50;91.53
52735;BME280;38631;47.572;10.704;2024-01-30T04:58:41;93805.53;;;-0.45;91.46
52735;BME280;38631;47.572;10.704;2024-01-30T05:01:06;93812.38;;;-0.57;91.05
52735;BME280;38631;47.572;10.704;2024-01-30T05:03:35;93807.28;;;-0.32;90.46
52735;BME280;38631;47.572;10.704;2024-01-30T05:06:00;93813.69;;;-0.28;90.89
52735;BME280;38631;47.572;10.704;2024-01-30T05:08:26;93807.72;;;-0.48;90.83
52735;BME280;38631;47.572;10.704;2024-01-30T05:10:51;93813.91;;;-0.36;91.46
52735;BME280;38631;47.572;10.704;2024-01-30T05:13:17;93812.09;;;-0.35;91.63
52735;BME280;38631;47.572;10.704;2024-01-30T05:15:42;93816.38;;;-0.48;91.01
52735;BME280;38631;47.572;10.704;2024-01-30T05:18:08;93822.75;;;-0.37;91.71
52735;BME280;38631;47.572;10.704;2024-01-30T05:20:33;93809.91;;;-0.38;92.05
52735;BME280;38631;47.572;10.704;2024-01-30T05:22:58;93824.34;;;-0.36;91.68
52735;BME280;38631;47.572;10.704;2024-01-30T05:25:24;93814.31;;;-0.32;91.37
52735;BME280;38631;47.572;10.704;2024-01-30T05:27:49;93809.41;;;-0.67;91.93
52735;BME280;38631;47.572;10.704;2024-01-30T05:30:15;93812.38;;;-0.63;92.87
52735;BME280;38631;47.572;10.704;2024-01-30T05:32:40;93821.78;;;-0.56;92.67
52735;BME280;38631;47.572;10.704;2024-01-30T05:35:06;93809.34;;;-0.60;91.93
52735;BME280;38631;47.572;10.704;2024-01-30T05:37:33;93817.84;;;-0.85;93.21
52735;BME280;38631;47.572;10.704;2024-01-30T05:39:58;93811.59;;;-0.71;92.68
52735;BME280;38631;47.572;10.704;2024-01-30T05:42:23;93828.81;;;-0.50;91.81
52735;BME280;38631;47.572;10.704;2024-01-30T05:44:49;93817.38;;;-0.55;91.59
52735;BME280;38631;47.572;10.704;2024-01-30T05:47:15;93825.03;;;-0.67;91.86
52735;BME280;38631;47.572;10.704;2024-01-30T05:49:40;93823.25;;;-0.87;93.64
52735;BME280;38631;47.572;10.704;2024-01-30T05:52:06;93827.69;;;-1.20;94.13
52735;BME280;38631;47.572;10.704;2024-01-30T05:54:31;93830.06;;;-0.79;94.26
52735;BME280;38631;47.572;10.704;2024-01-30T05:56:57;93835.28;;;-0.85;94.50
52735;BME280;38631;47.572;10.704;2024-01-30T05:59:22;93825.03;;;-0.74;93.84
52735;BME280;38631;47.572;10.704;2024-01-30T06:01:48;93825.84;;;-0.73;93.74
52735;BME280;38631;47.572;10.704;2024-01-30T06:04:14;93826.44;;;-0.71;93.15
52735;BME280;38631;47.572;10.704;2024-01-30T06:06:40;93823.41;;;-0.68;91.90
52735;BME280;38631;47.572;10.704;2024-01-30T06:09:05;93832.44;;;-0.64;92.52
52735;BME280;38631;47.572;10.704;2024-01-30T06:11:31;93837.91;;;-0.99;92.35
52735;BME280;38631;47.572;10.704;2024-01-30T06:13:56;93828.06;;;-0.70;93.15
52735;BME280;38631;47.572;10.704;2024-01-30T06:16:21;93833.66;;;-0.73;92.81
52735;BME280;38631;47.572;10.704;2024-01-30T06:18:48;93840.50;;;-0.79;94.29
52735;BME280;38631;47.572;10.704;2024-01-30T06:21:13;93837.66;;;-0.57;92.27
52735;BME280;38631;47.572;10.704;2024-01-30T06:23:39;93837.06;;;-0.66;92.83
52735;BME280;38631;47.572;10.704;2024-01-30T06:26:06;93833.63;;;-0.53;93.54
52735;BME280;38631;47.572;10.704;2024-01-30T06:28:31;93829.03;;;-0.71;92.36
52735;BME280;38631;47.572;10.704;2024-01-30T06:30:56;93836.91;;;-1.04;94.42
52735;BME280;38631;47.572;10.704;2024-01-30T06:33:22;93829.69;;;-0.82;94.35
52735;BME280;38631;47.572;10.704;2024-01-30T06:35:47;93832.88;;;-0.80;93.63
52735;BME280;38631;47.572;10.704;2024-01-30T06:38:13;93825.03;;;-0.67;93.41
52735;BME280;38631;47.572;10.704;2024-01-30T06:40:41;93833.28;;;-0.97;94.19
52735;BME280;38631;47.572;10.704;2024-01-30T06:43:06;93828.44;;;-0.73;94.25
52735;BME280;38631;47.572;10.704;2024-01-30T06:45:33;93843.06;;;-0.66;92.97
52735;BME280;38631;47.572;10.704;2024-01-30T06:47:59;93838.06;;;-0.67;93.06
52735;BME280;38631;47.572;10.704;2024-01-30T06:50:25;93834.88;;;-0.89;93.95
52735;BME280;38631;47.572;10.704;2024-01-30T06:52:50;93844.50;;;-0.70;92.79
52735;BME280;38631;47.572;10.704;2024-01-30T06:55:16;93824.66;;;-0.91;92.93
52735;BME280;38631;47.572;10.704;2024-01-30T06:57:41;93827.25;;;-0.77;93.29
52735;BME280;38631;47.572;10.704;2024-01-30T07:00:07;93837.31;;;-1.14;95.75
52735;BME280;38631;47.572;10.704;2024-01-30T07:02:32;93834.88;;;-0.96;94.93
52735;BME280;38631;47.572;10.704;2024-01-30T07:04:58;93837.09;;;-0.73;93.29
52735;BME280;38631;47.572;10.704;2024-01-30T07:07:23;93836.69;;;-0.90;95.45
52735;BME280;38631;47.572;10.704;2024-01-30T07:09:49;93830.28;;;-1.14;95.86
52735;BME280;38631;47.572;10.704;2024-01-30T07:12:17;93847.94;;;-1.02;95.40
52735;BME280;38631;47.572;10.704;2024-01-30T07:14:43;93833.69;;;-0.93;95.50
52735;BME280;38631;47.572;10.704;2024-01-30T07:17:08;93833.28;;;-0.70;94.72
52735;BME280;38631;47.572;10.704;2024-01-30T07:19:33;93824.44;;;-0.62;94.00
52735;BME280;38631;47.572;10.704;2024-01-30T07:22:00;93833.06;;;-0.75;94.24
52735;BME280;38631;47.572;10.704;2024-01-30T07:24:26;93833.66;;;-0.60;93.90
52735;BME280;38631;47.572;10.704;2024-01-30T07:26:51;93824.06;;;-0.73;94.72
52735;BME280;38631;47.572;10.704;2024-01-30T07:29:16;93839.47;;;-0.78;95.16
52735;BME280;38631;47.572;10.704;2024-01-30T07:31:42;93824.41;;;-0.56;93.97
52735;BME280;38631;47.572;10.704;2024-01-30T07:34:07;93844.19;;;-0.28;93.55
52735;BME280;38631;47.572;10.704;2024-01-30T07:36:33;93825.59;;;-0.52;94.08
52735;BME280;38631;47.572;10.704;2024-01-30T07:38:58;93829.19;;;-0.39;94.55
52735;BME280;38631;47.572;10.704;2024-01-30T07:41:23;93833.09;;;-0.10;93.06
52735;BME280;38631;47.572;10.704;2024-01-30T07:43:50;93843.22;;;-0.34;93.50
52735;BME280;38631;47.572;10.704;2024-01-30T07:46:15;93831.69;;;-0.06;94.29
52735;BME280;38631;47.572;10.704;2024-01-30T07:48:41;93843.69;;;0.02;94.11
52735;BME280;38631;47.572;10.704;2024-01-30T07:51:06;93847.94;;;0.03;93.55
52735;BME280;38631;47.572;10.704;2024-01-30T07:53:31;93839.69;;;0.06;92.78
52735;BME280;38631;47.572;10.704;2024-01-30T07:55:57;93842.59;;;0.22;92.57
52735;BME280;38631;47.572;10.704;2024-01-30T07:58:22;93849.94;;;0.39;93.57
52735;BME280;38631;47.572;10.704;2024-01-30T08:00:49;93846.47;;;0.52;91.83
52735;BME280;38631;47.572;10.704;2024-01-30T08:03:14;93852.88;;;0.56;91.96
52735;BME280;38631;47.572;10.704;2024-01-30T08:05:41;93853.00;;;0.68;91.28
52735;BME280;38631;47.572;10.704;2024-01-30T08:08:07;93844.69;;;0.77;91.19
52735;BME280;38631;47.572;10.704;2024-01-30T08:10:32;93838.03;;;0.81;91.57
52735;BME280;38631;47.572;10.704;2024-01-30T08:12:57;93843.53;;;0.98;90.97
52735;BME280;38631;47.572;10.704;2024-01-30T08:15:23;93850.09;;;1.07;88.08
52735;BME280;38631;47.572;10.704;2024-01-30T08:17:48;93855.00;;;1.22;88.69
52735;BME280;38631;47.572;10.704;2024-01-30T08:20:14;93850.41;;;1.18;89.14
52735;BME280;38631;47.572;10.704;2024-01-30T08:22:39;93860.00;;;1.31;89.00
52735;BME280;38631;47.572;10.704;2024-01-30T08:25:06;93865.53;;;1.41;88.36
52735;BME280;38631;47.572;10.704;2024-01-30T08:27:31;93850.53;;;1.48;88.24
52735;BME280;38631;47.572;10.704;2024-01-30T08:29:57;93862.00;;;1.54;86.67
52735;BME280;38631;47.572;10.704;2024-01-30T08:32:22;93858.06;;;1.63;85.62
52735;BME280;38631;47.572;10.704;2024-01-30T08:34:49;93852.63;;;1.64;86.95
52735;BME280;38631;47.572;10.704;2024-01-30T08:37:14;93866.00;;;1.93;87.10
52735;BME280;38631;47.572;10.704;2024-01-30T08:39:42;93855.28;;;2.13;84.59
52735;BME280;38631;47.572;10.704;2024-01-30T08:42:07;93865.72;;;2.01;85.32
52735;BME280;38631;47.572;10.704;2024-01-30T08:44:33;93857.41;;;2.23;85.20
52735;BME280;38631;47.572;10.704;2024-01-30T08:46:58;93858.50;;;2.33;83.12
52735;BME280;38631;47.572;10.704;2024-01-30T08:49:23;93862.38;;;2.31;84.31
52735;BME280;38631;47.572;10.704;2024-01-30T08:51:49;93858.28;;;2.16;85.60
52735;BME280;38631;47.572;10.704;2024-01-30T08:54:15;93868.53;;;2.36;84.83
52735;BME280;38631;47.572;10.704;2024-01-30T08:56:41;93867.94;;;2.34;84.93
52735;BME280;38631;47.572;10.704;2024-01-30T08:59:06;93860.81;;;2.42;85.00
52735;BME280;38631;47.572;10.704;2024-01-30T09:01:31;93856.88;;;2.63;82.92
52735;BME280;38631;47.572;10.704;2024-01-30T09:03:57;93871.81;;;2.92;81.82
52735;BME280;38631;47.572;10.704;2024-01-30T09:06:22;93877.41;;;2.96;82.71
52735;BME280;38631;47.572;10.704;2024-01-30T09:08:49;93886.34;;;3.07;81.54
52735;BME280;38631;47.572;10.704;2024-01-30T09:11:15;93871.53;;;3.36;80.26
52735;BME280;38631;47.572;10.704;2024-01-30T09:13:41;93883.28;;;3.33;81.78
52735;BME280;38631;47.572;10.704;2024-01-30T09:16:06;93880.34;;;3.41;81.60
52735;BME280;38631;47.572;10.704;2024-01-30T09:18:32;93863.22;;;3.39;81.01
52735;BME280;38631;47.572;10.704;2024-01-30T09:20:57;93881.28;;;3.59;80.30
52735;BME280;38631;47.572;10.704;2024-01-30T09:23:23;93880.81;;;3.62;79.67
52735;BME280;38631;47.572;10.704;2024-01-30T09:25:49;93873.28;;;3.65;79.62
52735;BME280;38631;47.572;10.704;2024-01-30T09:28:14;93873.28;;;3.77;79.61
52735;BME280;38631;47.572;10.704;2024-01-30T09:30:40;93871.69;;;3.76;80.89
52735;BME280;38631;47.572;10.704;2024-01-30T09:33:06;93880.59;;;3.52;80.96
52735;BME280;38631;47.572;10.704;2024-01-30T09:35:31;93872.03;;;3.80;79.68
52735;BME280;38631;47.572;10.704;2024-01-30T09:37:57;93875.66;;;3.90;76.83
52735;BME280;38631;47.572;10.704;2024-01-30T09:40:23;93871.19;;;4.15;74.50
52735;BME280;38631;47.572;10.704;2024-01-30T09:42:50;93879.44;;;4.06;74.15
52735;BME280;38631;47.572;10.704;2024-01-30T09:45:17;93867.28;;;4.29;71.14
52735;BME280;38631;47.572;10.704;2024-01-30T09:47:44;93876.06;;;4.23;71.52
52735;BME280;38631;47.572;10.704;2024-01-30T09:50:12;93865.56;;;4.23;74.18
52735;BME280;38631;47.572;10.704;2024-01-30T09:52:38;93876.19;;;4.28;75.81
52735;BME280;38631;47.572;10.704;2024-01-30T09:55:04;93868.19;;;4.23;75.80
52735;BME280;38631;47.572;10.704;2024-01-30T09:57:29;93870.88;;;4.51;75.00
52735;BME280;38631;47.572;10.704;2024-01-30T09:59:55;93877.94;;;4.51;75.90
52735;BME280;38631;47.572;10.704;2024-01-30T10:02:21;93870.94;;;4.85;77.11
52735;BME280;38631;47.572;10.704;2024-01-30T10:04:51;93879.91;;;5.01;74.26
52735;BME280;38631;47.572;10.704;2024-01-30T10:07:17;93879.22;;;5.56;70.68
52735;BME280;38631;47.572;10.704;2024-01-30T10:09:43;93868.31;;;5.48;68.98
52735;BME280;38631;47.572;10.704;2024-01-30T10:12:11;93872.44;;;5.60;67.34
52735;BME280;38631;47.572;10.704;2024-01-30T10:14:40;93869.81;;;5.44;66.31
52735;BME280;38631;47.572;10.704;2024-01-30T10:17:08;93871.09;;;5.58;66.31
52735;BME280;38631;47.572;10.704;2024-01-30T10:19:33;93863.50;;;5.61;64.44
52735;BME280;38631;47.572;10.704;2024-01-30T10:22:03;93867.41;;;5.76;62.27
52735;BME280;38631;47.572;10.704;2024-01-30T10:24:28;93861.19;;;5.65;63.97
52735;BME280;38631;47.572;10.704;2024-01-30T10:26:57;93858.06;;;5.68;64.48
52735;BME280;38631;47.572;10.704;2024-01-30T10:29:22;93854.19;;;5.37;64.41
52735;BME280;38631;47.572;10.704;2024-01-30T10:32:01;93849.31;;;5.46;63.35
52735;BME280;38631;47.572;10.704;2024-01-30T10:34:27;93850.16;;;5.51;64.29
52735;BME280;38631;47.572;10.704;2024-01-30T10:37:04;93847.22;;;5.48;64.73
52735;BME280;38631;47.572;10.704;2024-01-30T10:39:35;93851.06;;;5.57;64.03
52735;BME280;38631;47.572;10.704;2024-01-30T10:42:04;93842.09;;;5.75;62.12
52735;BME280;38631;47.572;10.704;2024-01-30T10:44:43;93848.47;;;5.96;62.03
52735;BME280;38631;47.572;10.704;2024-01-30T10:47:12;93836.78;;;5.92;59.62
52735;BME280;38631;47.572;10.704;2024-01-30T10:49:41;93833.56;;;6.06;59.25
52735;BME280;38631;47.572;10.704;2024-01-30T10:52:08;93829.91;;;6.08;59.04
52735;BME280;38631;47.572;10.704;2024-01-30T10:54:34;93819.50;;;6.18;59.86
52735;BME280;38631;47.572;10.704;2024-01-30T10:57:00;93824.22;;;6.38;61.22
52735;BME280;38631;47.572;10.704;2024-01-30T10:59:29;93825.72;;;6.34;61.62
52735;BME280;38631;47.572;10.704;2024-01-30T11:01:57;93828.13;;;6.35;59.28
52735;BME280;38631;47.572;10.704;2024-01-30T11:04:23;93822.59;;;6.86;57.96
52735;BME280;38631;47.572;10.704;2024-01-30T11:06:50;93820.69;;;6.81;58.46
52735;BME280;38631;47.572;10.704;2024-01-30T11:09:17;93818.66;;;6.88;58.98
52735;BME280;38631;47.572;10.704;2024-01-30T11:11:56;93814.47;;;6.92;57.23
52735;BME280;38631;47.572;10.704;2024-01-30T11:14:26;93811.25;;;6.85;59.39
52735;BME280;38631;47.572;10.704;2024-01-30T11:16:52;93809.22;;;7.25;56.51
52735;BME280;38631;47.572;10.704;2024-01-30T11:19:31;93808.50;;;7.40;56.03
52735;BME280;38631;47.572;10.704;2024-01-30T11:21:56;93803.53;;;7.43;57.04
52735;BME280;38631;47.572;10.704;2024-01-30T11:24:23;93804.69;;;7.20;60.17
52735;BME280;38631;47.572;10.704;2024-01-30T11:26:58;93803.84;;;7.52;58.94
52735;BME280;38631;47.572;10.704;2024-01-30T11:29:30;93804.69;;;7.57;57.69
52735;BME280;38631;47.572;10.704;2024-01-30T11:31:57;93794.34;;;7.51;58.04
52735;BME280;38631;47.572;10.704;2024-01-30T11:34:22;93798.13;;;10.58;54.22
52735;BME280;38631;47.572;10.704;2024-01-30T11:36:52;93793.16;;;8.32;55.37
52735;BME280;38631;47.572;10.704;2024-01-30T11:39:24;93787.91;;;7.84;57.74
52735;BME280;38631;47.572;10.704;2024-01-30T11:41:51;93790.16;;;8.08;56.67
52735;BME280;38631;47.572;10.704;2024-01-30T11:44:17;93788.25;;;7.93;56.51
52735;BME280;38631;47.572;10.704;2024-01-30T11:46:43;93794.63;;;8.02;56.61
52735;BME280;38631;47.572;10.704;2024-01-30T11:49:08;93792.97;;;7.91;57.73
52735;BME280;38631;47.572;10.704;2024-01-30T11:51:33;93798.41;;;8.21;56.57
52735;BME280;38631;47.572;10.704;2024-01-30T11:53:59;93791.28;;;8.32;55.38
52735;BME280;38631;47.572;10.704;2024-01-30T11:56:24;93799.44;;;8.10;56.42
52735;BME280;38631;47.572;10.704;2024-01-30T11:58:52;93792.72;;;7.97;57.08
52735;BME280;38631;47.572;10.704;2024-01-30T12:01:17;93790.09;;;7.97;55.37
52735;BME280;38631;47.572;10.704;2024-01-30T12:03:48;93789.94;;;8.19;55.04
52735;BME280;38631;47.572;10.704;2024-01-30T12:06:15;93791.53;;;8.15;56.24
52735;BME280;38631;47.572;10.704;2024-01-30T12:08:41;93782.22;;;8.08;55.57
52735;BME280;38631;47.572;10.704;2024-01-30T12:11:06;93775.84;;;8.04;53.91
52735;BME280;38631;47.572;10.704;2024-01-30T12:13:32;93771.28;;;7.89;55.70
52735;BME280;38631;47.572;10.704;2024-01-30T12:15:57;93785.28;;;7.84;55.46
52735;BME280;38631;47.572;10.704;2024-01-30T12:18:23;93782.31;;;8.33;51.52
52735;BME280;38631;47.572;10.704;2024-01-30T12:20:58;93785.03;;;8.43;52.01
52735;BME280;38631;47.572;10.704;2024-01-30T12:23:25;93779.47;;;8.45;48.40
52735;BME280;38631;47.572;10.704;2024-01-30T12:25:51;93785.78;;;8.39;49.84
52735;BME280;38631;47.572;10.704;2024-01-30T12:28:17;93783.19;;;8.49;49.72
52735;BME280;38631;47.572;10.704;2024-01-30T12:30:42;93783.91;;;8.34;50.81
52735;BME280;38631;47.572;10.704;2024-01-30T12:33:08;93773.78;;;8.16;50.36
52735;BME280;38631;47.572;10.704;2024-01-30T12:35:35;93777.03;;;8.33;49.82
52735;BME280;38631;47.572;10.704;2024-01-30T12:38:00;93768.59;;;8.41;47.69
52735;BME280;38631;47.572;10.704;2024-01-30T12:40:26;93772.41;;;8.81;47.83
52735;BME280;38631;47.572;10.704;2024-01-30T12:42:51;93771.59;;;8.65;48.71
52735;BME280;38631;47.572;10.704;2024-01-30T12:45:17;93776.59;;;8.67;48.43
52735;BME280;38631;47.572;10.704;2024-01-30T12:47:47;93781.09;;;8.67;48.49
52735;BME280;38631;47.572;10.704;2024-01-30T12:50:13;93782.16;;;8.50;50.20